createdAt,value
2023-02-22T00:18:09.579Z,26.01
2023-02-22T00:19:09.609Z,26.00
2023-02-22T00:20:09.638Z,26.01
2023-02-22T00:21:09.683Z,26.00
2023-02-22T00:22:09.718Z,26.01
2023-02-22T00:28:09.981Z,26.01
2023-02-22T00:29:10.028Z,26.00
2023-02-22T00:30:10.122Z,26.01
2023-02-22T00:56:11.152Z,25.98
2023-02-22T00:57:11.226Z,25.98
2023-02-22T00:58:11.942Z,26.00
2023-02-22T00:59:11.311Z,25.98
2023-02-22T01:00:11.323Z,25.97
2023-02-22T01:02:11.530Z,25.95
2023-02-22T01:03:11.462Z,25.97
2023-02-22T01:06:11.608Z,25.97
2023-02-22T01:07:11.640Z,25.95
2023-02-22T01:08:11.700Z,25.95
2023-02-22T01:09:11.710Z,25.97
2023-02-22T01:35:12.971Z,25.93
2023-02-22T02:19:15.028Z,25.88
2023-02-22T02:20:15.097Z,25.88
2023-02-22T02:21:15.395Z,25.88
2023-02-22T02:22:15.197Z,25.91
2023-02-22T02:23:15.271Z,25.85
2023-02-22T02:24:15.308Z,25.90
2023-02-22T02:25:15.327Z,25.85
2023-02-22T02:26:15.399Z,25.87
2023-02-22T02:27:15.472Z,25.87
2023-02-22T02:28:15.452Z,25.87
2023-02-22T02:29:15.515Z,25.87
2023-02-22T02:30:15.563Z,25.88
2023-02-22T02:31:16.023Z,25.90
2023-02-22T02:32:15.724Z,25.87
2023-02-22T02:33:15.710Z,25.90
2023-02-22T02:34:15.813Z,25.88
2023-02-22T02:35:15.816Z,25.88
2023-02-22T03:35:17.700Z,26.60
2023-02-22T03:36:17.706Z,26.65
2023-02-22T03:37:17.752Z,26.65
2023-02-22T03:38:17.752Z,26.66
2023-02-22T03:39:17.808Z,26.66
2023-02-22T03:40:17.825Z,26.68
2023-02-22T03:41:18.138Z,26.68
2023-02-22T03:42:17.924Z,26.68
2023-02-22T03:43:17.963Z,26.69
2023-02-22T03:44:18.009Z,26.73
2023-02-22T03:45:18.037Z,26.73
2023-02-22T03:46:18.088Z,26.72
2023-02-22T03:47:18.096Z,26.76
2023-02-22T03:48:18.152Z,26.76
2023-02-22T03:49:18.240Z,26.75
2023-02-22T03:50:18.263Z,26.79
2023-02-22T03:51:18.832Z,26.76
2023-02-22T03:52:18.372Z,26.76
2023-02-22T03:53:18.457Z,26.79
2023-02-22T03:54:18.512Z,26.76
2023-02-22T03:55:18.509Z,26.79
2023-02-22T03:56:18.527Z,26.76
2023-02-22T03:57:18.596Z,26.78
2023-02-22T03:58:18.684Z,26.76
2023-02-22T03:59:18.742Z,26.78
2023-02-22T04:00:18.747Z,26.79
2023-02-22T04:01:19.045Z,26.76
2023-02-22T04:02:18.824Z,26.78
2023-02-22T04:03:18.984Z,26.76
2023-02-22T04:04:18.930Z,26.75
2023-02-22T04:05:18.954Z,26.76
2023-02-22T04:06:19.015Z,26.75
2023-02-22T04:07:19.061Z,26.75
2023-02-22T04:08:19.120Z,26.73
2023-02-22T04:09:19.157Z,26.73
2023-02-22T04:10:19.204Z,26.76
2023-02-22T04:11:19.259Z,26.75
2023-02-22T04:12:19.331Z,26.72
2023-02-22T04:13:19.360Z,26.73
2023-02-22T04:14:19.391Z,26.72
2023-02-22T04:15:19.387Z,26.72
2023-02-22T04:16:19.453Z,26.73
2023-02-22T04:17:19.437Z,26.72
2023-02-22T04:18:19.434Z,26.71
2023-02-22T04:19:19.453Z,26.69
2023-02-22T04:20:19.485Z,26.72
2023-02-22T04:21:19.614Z,26.68
2023-02-22T04:22:19.477Z,26.68
2023-02-22T04:23:19.463Z,26.68
2023-02-22T04:24:19.496Z,26.66
2023-02-22T04:25:19.493Z,26.69
2023-02-22T04:26:19.525Z,26.66
2023-02-22T04:27:19.531Z,26.66
2023-02-22T04:28:19.489Z,26.65
2023-02-22T04:29:19.484Z,26.65
2023-02-22T04:30:19.558Z,26.66
2023-02-22T04:31:19.906Z,26.62
2023-02-22T04:32:19.555Z,26.63
2023-02-22T04:33:19.486Z,26.63
2023-02-22T04:34:19.483Z,26.66
2023-02-22T04:35:19.456Z,26.60
2023-02-22T04:36:19.453Z,26.60
2023-02-22T04:37:19.465Z,26.60
2023-02-22T04:38:19.475Z,26.59
2023-02-22T05:10:19.371Z,26.55
2023-02-22T05:11:19.348Z,26.53
2023-02-22T05:12:19.386Z,26.56
2023-02-22T05:13:19.356Z,26.55
2023-02-22T05:14:19.346Z,26.55
2023-02-22T05:15:19.328Z,26.55
2023-02-22T05:16:19.472Z,26.53
2023-02-22T05:17:19.342Z,26.55
2023-02-22T05:18:19.322Z,26.58
2023-02-22T05:19:19.341Z,26.56
2023-02-22T05:20:19.875Z,26.55
2023-02-22T05:21:19.490Z,26.56
2023-02-22T05:22:19.322Z,26.55
2023-02-22T05:23:19.285Z,26.58
2023-02-22T05:24:19.291Z,26.53
2023-02-22T05:25:19.311Z,26.56
2023-02-22T05:26:19.306Z,26.56
2023-02-22T05:27:19.301Z,26.53
2023-02-22T05:28:19.289Z,26.53
2023-02-22T05:29:19.304Z,26.53
2023-02-22T05:30:19.362Z,26.56
2023-02-22T05:31:19.726Z,26.56
2023-02-22T05:32:19.294Z,26.56
2023-02-22T05:33:19.273Z,26.53
2023-02-22T05:34:19.278Z,26.56
2023-02-22T05:35:19.295Z,26.59
2023-02-22T05:36:19.248Z,26.59
2023-02-22T05:37:19.308Z,26.53
2023-02-22T05:38:19.295Z,26.55
2023-02-22T05:39:19.275Z,26.55
2023-02-22T05:40:19.266Z,26.55
2023-02-22T05:41:19.398Z,26.56
2023-02-22T05:42:19.353Z,26.53
2023-02-22T05:43:19.273Z,26.58
2023-02-22T05:44:19.274Z,26.58
2023-02-22T05:45:19.300Z,26.56
2023-02-22T05:46:19.303Z,26.58
2023-02-22T05:47:19.284Z,26.59
2023-02-22T05:48:21.252Z,26.59
2023-02-22T05:49:19.250Z,26.58
2023-02-22T05:50:19.238Z,26.56
2023-02-22T05:51:19.311Z,26.59
2023-02-22T05:52:19.252Z,26.56
2023-02-22T05:53:19.218Z,26.56
2023-02-22T05:54:19.213Z,26.58
2023-02-22T05:55:19.207Z,26.56
2023-02-22T05:56:19.218Z,26.58
2023-02-22T05:57:19.177Z,26.56
2023-02-22T05:58:19.169Z,26.56
2023-02-22T05:59:19.137Z,26.58
2023-02-22T06:00:19.201Z,26.56
2023-02-22T06:01:26.154Z,26.58
2023-02-22T06:02:19.247Z,26.58
2023-02-22T06:03:19.133Z,26.59
2023-02-22T06:04:19.139Z,26.59
2023-02-22T06:05:19.161Z,26.56
2023-02-22T06:06:21.744Z,26.60
2023-02-22T06:07:19.148Z,26.58
2023-02-22T06:08:19.109Z,26.59
2023-02-22T06:09:19.145Z,26.59
2023-02-22T06:10:19.077Z,26.60
2023-02-22T06:11:19.462Z,26.60
2023-02-22T06:12:19.086Z,26.60
2023-02-22T06:13:19.057Z,26.59
2023-02-22T06:14:19.072Z,26.60
2023-02-22T06:15:19.053Z,26.63
2023-02-22T06:16:19.089Z,26.62
2023-02-22T06:17:20.648Z,26.66
2023-02-22T06:18:19.042Z,26.60
2023-02-22T06:19:19.037Z,26.65
2023-02-22T06:20:19.010Z,26.58
2023-02-22T06:21:19.289Z,26.51
2023-02-22T06:22:19.026Z,26.39
2023-02-22T06:23:18.995Z,26.22
2023-02-22T06:24:19.016Z,26.15
2023-02-22T06:25:18.982Z,26.08
2023-02-22T06:26:18.992Z,26.05
2023-02-22T06:27:18.960Z,26.04
2023-02-22T06:28:18.960Z,26.03
2023-02-22T06:29:18.967Z,26.01
2023-02-22T06:30:19.013Z,25.62
2023-02-22T06:31:19.316Z,24.96
2023-02-22T06:32:18.984Z,24.37
2023-02-22T06:33:18.945Z,23.90
2023-02-22T06:34:18.934Z,23.63
2023-02-22T06:35:18.901Z,23.53
2023-02-22T06:36:18.912Z,23.52
2023-02-22T06:37:18.905Z,23.58
2023-02-22T06:38:18.941Z,23.65
2023-02-22T06:39:18.990Z,23.76
2023-02-22T06:40:19.100Z,23.86
2023-02-22T06:41:19.114Z,23.95
2023-02-22T06:42:19.133Z,24.09
2023-02-22T06:43:19.121Z,24.17
2023-02-22T06:44:19.167Z,24.33
2023-02-22T06:45:19.194Z,24.44
2023-02-22T06:46:26.753Z,24.55
2023-02-22T06:47:19.238Z,24.70
2023-02-22T06:48:19.225Z,24.82
2023-02-22T06:49:19.290Z,24.92
2023-02-22T06:50:19.672Z,25.03
2023-02-22T06:51:19.354Z,25.13
2023-02-22T06:52:19.175Z,25.23
2023-02-22T06:53:19.281Z,25.32
2023-02-22T06:54:19.128Z,25.40
2023-02-22T06:55:19.184Z,25.49
2023-02-22T06:56:19.132Z,25.56
2023-02-22T06:57:19.117Z,25.66
2023-02-22T06:58:19.135Z,25.73
2023-02-22T06:59:19.073Z,25.77
2023-02-22T07:00:19.117Z,25.85
2023-02-22T07:01:19.333Z,25.91
2023-02-22T07:02:19.097Z,25.94
2023-02-22T07:03:19.055Z,25.98
2023-02-22T07:04:19.041Z,26.03
2023-02-22T07:05:19.057Z,26.07
2023-02-22T07:06:19.060Z,26.12
2023-02-22T07:07:19.025Z,26.17
2023-02-22T07:08:19.026Z,26.21
2023-02-22T07:09:19.012Z,26.22
2023-02-22T07:10:19.025Z,26.28
2023-02-22T07:11:19.333Z,26.35
2023-02-22T07:12:19.008Z,26.36
2023-02-22T07:13:19.007Z,26.39
2023-02-22T07:14:19.104Z,26.45
2023-02-22T07:15:19.059Z,26.45
2023-02-22T07:16:19.087Z,26.49
2023-02-22T07:17:19.069Z,26.53
2023-02-22T07:18:19.082Z,26.53
2023-02-22T07:19:19.069Z,26.56
2023-02-22T07:20:19.674Z,26.56
2023-02-22T07:21:19.372Z,26.59
2023-02-22T07:22:19.210Z,26.63
2023-02-22T07:23:19.247Z,26.65
2023-02-22T07:24:19.337Z,26.68
2023-02-22T07:25:19.685Z,26.69
2023-02-22T07:26:19.461Z,26.71
2023-02-22T07:27:19.511Z,26.72
2023-02-22T07:28:19.553Z,26.71
2023-02-22T07:29:19.679Z,26.73
2023-02-22T07:30:20.795Z,26.76
2023-02-22T07:31:20.196Z,26.78
2023-02-22T07:32:19.870Z,26.81
2023-02-22T07:33:19.809Z,26.79
2023-02-22T07:34:19.871Z,26.82
2023-02-22T07:35:19.873Z,26.87
2023-02-22T07:36:20.135Z,26.92
2023-02-22T07:37:19.994Z,27.00
2023-02-22T07:38:20.037Z,26.96
2023-02-22T07:39:20.111Z,27.06
2023-02-22T07:40:20.165Z,27.14
2023-02-22T07:41:20.174Z,27.10
2023-02-22T07:42:20.176Z,27.02
2023-02-22T07:43:20.198Z,27.04
2023-02-22T07:44:20.243Z,27.03
2023-02-22T07:45:20.291Z,27.04
2023-02-22T07:46:20.397Z,27.02
2023-02-22T07:47:20.366Z,27.04
2023-02-22T07:54:20.571Z,26.93
2023-02-22T07:55:20.571Z,26.93
2023-02-22T07:56:20.671Z,26.93
2023-02-22T07:57:20.620Z,26.90
2023-02-22T07:58:20.615Z,26.99
2023-02-22T07:59:20.611Z,27.00
2023-02-22T08:00:20.668Z,27.02
2023-02-22T08:01:20.742Z,27.03
2023-02-22T08:02:20.798Z,27.03
2023-02-22T08:03:20.892Z,26.99
2023-02-22T08:04:20.911Z,27.06
2023-02-22T08:05:20.955Z,27.02
2023-02-22T08:06:20.992Z,27.04
2023-02-22T08:07:21.024Z,27.06
2023-02-22T08:08:21.076Z,27.06
2023-02-22T08:09:21.141Z,27.09
2023-02-22T08:10:21.153Z,27.11
2023-02-22T08:11:21.204Z,27.14
2023-02-22T08:12:21.201Z,27.11
2023-02-22T08:13:21.232Z,27.14
2023-02-22T08:14:21.276Z,27.16
2023-02-22T08:15:21.322Z,27.16
2023-02-22T08:16:21.339Z,27.20
2023-02-22T08:17:21.454Z,27.20
2023-02-22T08:18:21.398Z,27.20
2023-02-22T08:19:21.402Z,27.23
2023-02-22T08:20:21.436Z,27.24
2023-02-22T08:21:21.493Z,27.26
2023-02-22T08:22:22.078Z,27.27
2023-02-22T08:23:21.468Z,27.32
2023-02-22T08:24:21.497Z,27.32
2023-02-22T08:25:21.500Z,27.30
2023-02-22T08:45:21.956Z,22.74
2023-02-22T08:46:22.097Z,22.93
2023-02-22T08:49:22.085Z,23.52
2023-02-22T08:50:22.124Z,23.70
2023-02-22T09:00:22.393Z,25.46
2023-02-22T09:01:32.758Z,25.57
2023-02-22T09:03:22.416Z,25.81
2023-02-22T09:04:22.423Z,25.88
2023-02-22T09:05:22.380Z,25.97
2023-02-22T09:06:22.370Z,26.00
2023-02-22T09:07:22.390Z,26.07
2023-02-22T09:08:22.389Z,26.09
2023-02-22T09:09:22.367Z,26.15
2023-02-22T09:10:22.371Z,26.24
2023-02-22T09:11:22.312Z,26.28
2023-02-22T09:12:22.387Z,26.31
2023-02-22T09:13:22.324Z,26.36
2023-02-22T09:14:22.316Z,26.44
2023-02-22T09:15:22.297Z,26.46
2023-02-22T09:16:22.742Z,26.52
2023-02-22T09:17:22.290Z,26.56
2023-02-22T09:18:22.285Z,26.60
2023-02-22T09:19:22.328Z,26.63
2023-02-22T09:20:22.288Z,26.68
2023-02-22T09:21:22.326Z,26.71
2023-02-22T09:22:22.417Z,26.76
2023-02-22T09:23:22.395Z,26.79
2023-02-22T09:24:22.362Z,26.82
2023-02-22T09:25:22.353Z,26.85
2023-02-22T09:26:22.706Z,26.87
2023-02-22T09:27:22.338Z,26.89
2023-02-22T09:28:22.347Z,26.93
2023-02-22T09:29:22.341Z,26.96
2023-02-22T09:30:22.430Z,26.96
2023-02-22T09:31:23.110Z,27.00
2023-02-22T09:32:22.444Z,27.00
2023-02-22T09:33:22.327Z,27.07
2023-02-22T09:34:22.270Z,27.07
2023-02-22T09:35:22.329Z,27.11
2023-02-22T09:36:22.658Z,27.14
2023-02-22T09:37:22.285Z,27.17
2023-02-22T09:38:22.283Z,27.22
2023-02-22T09:39:22.320Z,27.27
2023-02-22T09:40:22.350Z,27.33
2023-02-22T09:41:22.368Z,27.36
2023-02-22T09:42:22.721Z,27.38
2023-02-22T09:43:22.352Z,27.41
2023-02-22T09:44:22.493Z,27.41
2023-02-22T09:45:22.384Z,27.43
2023-02-22T09:46:22.493Z,27.48
2023-02-22T09:47:22.491Z,27.50
2023-02-22T09:48:22.807Z,27.50
2023-02-22T09:49:22.477Z,27.44
2023-02-22T09:50:22.549Z,27.36
2023-02-22T09:51:22.649Z,27.32
2023-02-22T09:52:22.715Z,27.02
2023-02-22T09:53:23.638Z,26.75
2023-02-22T09:57:22.735Z,25.81
2023-02-22T09:58:22.784Z,25.56
2023-02-22T09:59:22.861Z,25.33
2023-02-22T10:00:22.955Z,25.25
2023-02-22T10:01:23.012Z,25.18
2023-02-22T10:02:23.030Z,25.12
2023-02-22T10:03:23.101Z,25.06
2023-02-22T10:05:23.161Z,24.89
2023-02-22T10:06:23.171Z,24.88
2023-02-22T10:07:23.209Z,24.85
2023-02-22T10:08:23.268Z,24.82
2023-02-22T10:09:23.307Z,24.82
2023-02-22T10:12:23.721Z,24.72
2023-02-22T10:13:23.267Z,24.71
2023-02-22T10:14:23.262Z,24.65
2023-02-22T10:15:23.267Z,24.57
2023-02-22T10:16:23.274Z,24.33
2023-02-22T10:17:23.263Z,24.12
2023-02-22T10:18:23.249Z,24.03
2023-02-22T10:19:23.240Z,24.02
2023-02-22T10:20:23.222Z,24.03
2023-02-22T10:21:23.249Z,24.02
2023-02-22T10:22:23.255Z,24.02
2023-02-22T10:23:23.269Z,24.02
2023-02-22T10:24:23.279Z,24.04
2023-02-22T10:25:23.350Z,24.04
2023-02-22T10:26:23.333Z,24.06
2023-02-22T10:27:23.760Z,24.10
2023-02-22T10:28:23.298Z,24.12
2023-02-22T10:29:23.323Z,24.13
2023-02-22T10:30:25.296Z,24.17
2023-02-22T10:31:23.448Z,24.12
2023-02-22T10:32:23.374Z,23.82
2023-02-22T10:33:23.393Z,23.53
2023-02-22T10:34:23.453Z,23.38
2023-02-22T10:35:23.406Z,23.32
2023-02-22T10:36:23.468Z,23.29
2023-02-22T10:37:23.750Z,23.24
2023-02-22T10:38:23.549Z,23.18
2023-02-22T10:39:23.577Z,23.01
2023-02-22T10:40:23.529Z,22.80
2023-02-22T10:41:23.607Z,22.67
2023-02-22T10:42:23.758Z,22.50
2023-02-22T10:43:23.681Z,22.44
2023-02-22T10:44:23.738Z,22.50
2023-02-22T10:45:23.738Z,22.66
2023-02-22T10:46:23.768Z,22.81
2023-02-22T10:47:23.843Z,23.04
2023-02-22T10:48:23.852Z,23.24
2023-02-22T10:49:23.871Z,23.42
2023-02-22T10:50:23.939Z,23.63
2023-02-22T10:51:23.986Z,23.80
2023-02-22T10:52:24.257Z,24.00
2023-02-22T10:53:23.983Z,24.21
2023-02-22T10:54:23.990Z,24.40
2023-02-22T10:55:24.070Z,24.54
2023-02-22T10:56:24.091Z,24.70
2023-02-22T10:57:24.112Z,24.84
2023-02-22T10:58:24.337Z,24.99
2023-02-22T10:59:25.628Z,25.16
2023-02-22T11:00:24.264Z,25.25
2023-02-22T11:01:24.353Z,25.36
2023-02-22T11:02:24.771Z,25.44
2023-02-22T11:03:24.486Z,25.53
2023-02-22T11:04:24.297Z,25.62
2023-02-22T11:05:24.268Z,25.70
2023-02-22T11:06:24.315Z,25.76
2023-02-22T11:07:24.389Z,25.83
2023-02-22T11:08:24.389Z,25.90
2023-02-22T11:09:24.512Z,25.95
2023-02-22T11:10:24.504Z,26.04
2023-02-22T11:11:24.630Z,26.09
2023-02-22T11:24:25.023Z,26.71
2023-02-22T11:25:25.067Z,26.69
2023-02-22T11:26:25.111Z,26.73
2023-02-22T11:34:25.300Z,26.93
2023-02-22T11:35:25.298Z,26.94
2023-02-22T14:00:30.545Z,26.92
2023-02-22T14:01:30.581Z,26.92
2023-02-22T14:02:30.645Z,26.93
2023-02-22T14:03:30.698Z,26.93
2023-02-22T14:04:30.779Z,26.94
2023-02-22T14:05:30.849Z,26.96
2023-02-22T14:06:30.867Z,26.94
2023-02-22T14:07:30.910Z,26.96
2023-02-22T14:08:30.988Z,26.92
2023-02-22T14:09:31.050Z,26.94
2023-02-22T14:10:31.109Z,26.94
2023-02-22T14:11:31.138Z,26.96
2023-02-22T14:12:31.304Z,26.97
2023-02-22T14:13:31.273Z,26.96
2023-02-22T14:14:31.333Z,26.96
2023-02-22T14:15:31.444Z,26.94
2023-02-22T14:16:31.506Z,26.94
2023-02-22T14:17:31.512Z,27.00
2023-02-22T14:18:31.620Z,26.97
2023-02-22T14:19:31.630Z,26.97
2023-02-22T14:20:31.691Z,26.97
2023-02-22T14:21:31.747Z,26.96
2023-02-22T14:22:31.914Z,26.96
2023-02-22T14:23:32.340Z,26.97
2023-02-22T14:24:31.896Z,26.97
2023-02-22T14:26:32.066Z,26.96
2023-02-22T14:27:32.098Z,26.99
2023-02-22T14:28:32.145Z,26.99
2023-02-22T14:29:32.201Z,26.99
2023-02-22T14:30:32.355Z,26.99
2023-02-22T14:32:32.463Z,27.00
2023-02-22T14:36:32.614Z,26.99
2023-02-22T17:58:40.923Z,26.44
2023-02-22T17:59:41.389Z,26.42
2023-02-22T18:10:40.798Z,26.38
2023-02-22T18:11:40.812Z,26.39
2023-02-22T18:12:40.499Z,26.39
2023-02-22T18:13:40.605Z,26.38
2023-02-22T18:14:40.571Z,26.39
2023-02-22T18:15:40.581Z,26.39
2023-02-22T18:16:40.533Z,26.38
2023-02-22T18:17:40.567Z,26.36
2023-02-22T18:18:40.598Z,26.38
2023-02-22T18:19:40.585Z,26.38
2023-02-22T18:20:40.605Z,26.36
2023-02-22T18:21:40.580Z,26.36
2023-02-22T18:22:40.589Z,26.38
2023-02-22T18:23:40.612Z,26.36
2023-02-22T18:24:40.614Z,26.36
2023-02-22T18:25:40.632Z,26.38
2023-02-22T18:26:40.736Z,26.35
2023-02-22T18:27:40.689Z,26.35
2023-02-22T18:28:40.689Z,26.34
2023-02-22T18:29:40.697Z,26.35
2023-02-22T18:30:40.729Z,26.31
2023-02-22T18:31:40.745Z,26.34
2023-02-22T18:32:40.714Z,26.32
2023-02-22T18:33:40.753Z,26.32
2023-02-22T18:34:40.764Z,26.31
2023-02-22T18:35:40.761Z,26.31
2023-02-22T18:36:40.830Z,26.30
2023-02-22T18:37:40.826Z,26.32
2023-02-22T18:38:40.831Z,26.31
2023-02-22T18:39:40.856Z,26.30
2023-02-22T18:40:40.872Z,26.30
2023-02-22T18:41:40.910Z,26.30
2023-02-22T18:42:40.935Z,26.30
2023-02-22T18:43:40.949Z,26.30
2023-02-22T18:44:41.161Z,26.30
2023-02-22T18:45:41.319Z,26.28
2023-02-22T18:46:41.248Z,26.28
2023-02-22T18:47:40.987Z,26.25
2023-02-22T18:48:40.983Z,26.27
2023-02-22T18:49:41.033Z,26.27
2023-02-22T18:50:41.040Z,26.28
2023-02-22T18:51:41.049Z,26.27
2023-02-22T18:52:41.071Z,26.25
2023-02-22T18:53:41.133Z,26.28
2023-02-22T18:54:41.131Z,26.27
2023-02-22T18:55:41.141Z,26.25
2023-02-22T18:56:41.149Z,26.27
2023-02-22T18:57:41.155Z,26.24
2023-02-22T18:58:41.196Z,26.24
2023-02-22T18:59:41.249Z,26.25
2023-02-22T19:00:41.260Z,26.27
2023-02-22T19:01:41.359Z,26.24
2023-02-22T19:02:41.359Z,26.24
2023-02-22T19:03:41.327Z,26.25
2023-02-22T19:04:41.348Z,26.24
2023-02-22T19:05:41.383Z,26.24
2023-02-22T19:06:41.414Z,26.27
2023-02-22T19:07:41.442Z,26.25
2023-02-22T19:08:41.483Z,26.22
2023-02-22T19:09:41.480Z,26.24
2023-02-22T19:10:41.543Z,26.24
2023-02-22T19:11:41.559Z,26.22
2023-02-22T19:12:41.586Z,26.21
2023-02-22T19:13:41.619Z,26.22
2023-02-22T19:14:41.655Z,26.22
2023-02-22T19:15:41.717Z,26.22
2023-02-22T19:16:41.695Z,26.21
2023-02-22T19:17:42.825Z,26.20
2023-02-22T19:18:41.745Z,26.18
2023-02-22T19:51:42.996Z,26.08
2023-02-22T20:10:43.732Z,26.04
2023-02-22T20:11:43.774Z,26.07
2023-02-22T20:12:43.825Z,26.05
2023-02-22T20:13:43.863Z,26.04
2023-02-22T20:14:43.909Z,26.04
2023-02-22T20:15:43.943Z,26.05
2023-02-22T20:16:44.001Z,26.03
2023-02-22T20:17:44.027Z,26.04
2023-02-22T20:18:44.050Z,26.01
2023-02-22T20:19:44.102Z,26.04
2023-02-22T20:20:44.155Z,26.05
2023-02-22T20:21:44.173Z,26.04
2023-02-22T20:22:44.223Z,26.05
2023-02-22T20:23:44.346Z,26.03
2023-02-22T20:24:44.313Z,26.04
2023-02-22T20:25:44.363Z,26.03
2023-02-22T20:26:44.411Z,26.03
2023-02-22T20:27:44.451Z,26.01
2023-02-22T20:28:44.486Z,26.04
2023-02-22T20:29:44.560Z,26.01
2023-02-22T20:30:44.598Z,26.01
2023-02-22T20:31:44.752Z,26.03
2023-02-22T20:32:44.890Z,26.00
2023-02-22T20:33:44.856Z,26.03
2023-02-22T20:34:44.750Z,26.00
2023-02-22T20:35:44.827Z,26.01
2023-02-22T20:36:44.830Z,26.01
2023-02-22T20:37:44.904Z,26.04
2023-02-22T20:38:44.948Z,26.00
2023-02-22T20:39:45.007Z,26.01
2023-02-22T20:40:45.020Z,26.00
2023-02-22T20:41:45.082Z,25.97
2023-02-22T20:42:45.114Z,25.98
2023-02-22T20:43:45.157Z,26.00
2023-02-22T20:44:45.214Z,25.98
2023-02-22T20:45:45.281Z,26.01
2023-02-22T20:46:45.341Z,25.98
2023-02-22T20:47:45.355Z,26.00
2023-02-22T20:48:45.435Z,26.01
2023-02-22T20:49:45.445Z,26.00
2023-02-22T20:50:45.469Z,26.01
2023-02-22T20:51:45.527Z,25.97
2023-02-22T20:52:45.563Z,25.98
2023-02-22T20:53:45.617Z,25.97
2023-02-22T20:54:45.681Z,25.97
2023-02-22T20:55:45.716Z,25.98
2023-02-22T20:56:45.759Z,25.97
2023-02-22T20:57:45.796Z,26.00
2023-02-22T20:58:45.877Z,25.98
2023-02-22T20:59:45.876Z,25.97
2023-02-22T21:00:46.039Z,25.98
2023-02-22T21:01:45.958Z,25.98
2023-02-22T21:02:46.039Z,26.01
2023-02-22T21:03:46.077Z,25.98
2023-02-22T21:04:46.146Z,25.98
2023-02-22T21:05:46.158Z,26.00
2023-02-22T21:06:46.192Z,26.00
2023-02-22T21:07:46.213Z,26.01
2023-02-22T21:08:46.287Z,25.98
2023-02-22T21:09:46.330Z,25.98
2023-02-22T21:28:51.188Z,25.98
2023-02-22T21:29:47.152Z,25.97
2023-02-22T21:30:47.182Z,26.00
2023-02-22T21:31:47.223Z,26.00
2023-02-22T21:32:47.121Z,25.97
2023-02-22T21:33:47.095Z,25.97
2023-02-22T21:34:47.117Z,26.00
2023-02-22T21:35:47.268Z,26.00
2023-02-22T21:36:47.070Z,25.98
2023-02-22T22:59:50.515Z,25.85
2023-02-22T23:00:50.554Z,25.85
2023-02-22T23:01:50.626Z,25.85
2023-02-22T23:02:50.718Z,25.84
2023-02-22T23:03:50.730Z,25.81
2023-02-22T23:05:50.816Z,25.84
